sensor_id;sensor_type;location;lat;lon;timestamp;P1;durP1;ratioP1;P2;durP2;ratioP2
72864;SDS011;61000;48.120;11.548;2023-04-06T00:00:36;9.90;;;7.25;;
72864;SDS011;61000;48.120;11.548;2023-04-06T00:03:03;8.98;;;6.65;;
72864;SDS011;61000;48.120;11.548;2023-04-06T00:05:32;7.30;;;6.57;;
72864;SDS011;61000;48.120;11.548;2023-04-06T00:07:59;8.00;;;6.88;;
72864;SDS011;61000;48.120;11.548;2023-04-06T00:10:26;11.30;;;7.07;;
72864;SDS011;61000;48.120;11.548;2023-04-06T00:12:54;10.65;;;6.72;;
72864;SDS011;61000;48.120;11.548;2023-04-06T00:15:22;10.98;;;7.47;;
72864;SDS011;61000;48.120;11.548;2023-04-06T00:17:49;11.05;;;6.88;;
72864;SDS011;61000;48.120;11.548;2023-04-06T00:20:16;11.02;;;7.55;;
72864;SDS011;61000;48.120;11.548;2023-04-06T00:22:46;9.20;;;7.60;;
72864;SDS011;61000;48.120;11.548;2023-04-06T00:25:13;10.55;;;7.43;;
72864;SDS011;61000;48.120;11.548;2023-04-06T00:27:40;12.10;;;7.30;;
72864;SDS011;61000;48.120;11.548;2023-04-06T00:30:08;9.18;;;7.47;;
72864;SDS011;61000;48.120;11.548;2023-04-06T00:32:35;10.77;;;7.78;;
72864;SDS011;61000;48.120;11.548;2023-04-06T00:35:02;10.05;;;7.65;;
72864;SDS011;61000;48.120;11.548;2023-04-06T00:37:30;9.15;;;8.07;;
72864;SDS011;61000;48.120;11.548;2023-04-06T00:39:58;8.43;;;7.00;;
72864;SDS011;61000;48.120;11.548;2023-04-06T00:42:27;11.95;;;7.53;;
72864;SDS011;61000;48.120;11.548;2023-04-06T00:44:55;11.40;;;7.55;;
72864;SDS011;61000;48.120;11.548;2023-04-06T00:47:24;12.07;;;7.97;;
72864;SDS011;61000;48.120;11.548;2023-04-06T00:49:52;9.25;;;7.32;;
72864;SDS011;61000;48.120;11.548;2023-04-06T00:52:19;11.95;;;7.45;;
72864;SDS011;61000;48.120;11.548;2023-04-06T00:54:48;10.32;;;7.80;;
72864;SDS011;61000;48.120;11.548;2023-04-06T00:57:18;10.23;;;7.93;;
72864;SDS011;61000;48.120;11.548;2023-04-06T00:59:49;7.75;;;6.82;;
72864;SDS011;61000;48.120;11.548;2023-04-06T01:02:18;10.30;;;7.70;;
72864;SDS011;61000;48.120;11.548;2023-04-06T01:04:48;9.20;;;7.30;;
72864;SDS011;61000;48.120;11.548;2023-04-06T01:07:23;8.52;;;6.88;;
72864;SDS011;61000;48.120;11.548;2023-04-06T01:10:05;9.27;;;6.97;;
72864;SDS011;61000;48.120;11.548;2023-04-06T01:12:36;9.15;;;7.30;;
72864;SDS011;61000;48.120;11.548;2023-04-06T01:15:09;7.55;;;6.78;;
72864;SDS011;61000;48.120;11.548;2023-04-06T01:17:40;9.38;;;6.80;;
72864;SDS011;61000;48.120;11.548;2023-04-06T01:20:12;8.35;;;7.38;;
72864;SDS011;61000;48.120;11.548;2023-04-06T01:22:41;14.88;;;7.93;;
72864;SDS011;61000;48.120;11.548;2023-04-06T01:25:09;12.88;;;7.57;;
72864;SDS011;61000;48.120;11.548;2023-04-06T01:27:43;8.52;;;7.65;;
72864;SDS011;61000;48.120;11.548;2023-04-06T01:30:11;8.77;;;7.53;;
72864;SDS011;61000;48.120;11.548;2023-04-06T01:32:56;9.23;;;7.53;;
72864;SDS011;61000;48.120;11.548;2023-04-06T01:35:35;8.50;;;7.32;;
72864;SDS011;61000;48.120;11.548;2023-04-06T01:38:18;11.00;;;7.53;;
72864;SDS011;61000;48.120;11.548;2023-04-06T01:40:46;11.10;;;7.43;;
72864;SDS011;61000;48.120;11.548;2023-04-06T01:43:15;13.57;;;7.38;;
72864;SDS011;61000;48.120;11.548;2023-04-06T01:46:04;10.40;;;7.75;;
72864;SDS011;61000;48.120;11.548;2023-04-06T01:48:35;9.93;;;7.75;;
72864;SDS011;61000;48.120;11.548;2023-04-06T01:51:12;11.05;;;8.10;;
72864;SDS011;61000;48.120;11.548;2023-04-06T01:53:48;9.65;;;7.60;;
72864;SDS011;61000;48.120;11.548;2023-04-06T01:56:17;9.85;;;7.57;;
72864;SDS011;61000;48.120;11.548;2023-04-06T01:58:53;10.80;;;7.80;;
72864;SDS011;61000;48.120;11.548;2023-04-06T02:01:21;10.73;;;8.20;;
72864;SDS011;61000;48.120;11.548;2023-04-06T02:03:53;8.68;;;7.78;;
72864;SDS011;61000;48.120;11.548;2023-04-06T02:06:20;9.35;;;7.57;;
72864;SDS011;61000;48.120;11.548;2023-04-06T02:08:49;9.10;;;7.63;;
72864;SDS011;61000;48.120;11.548;2023-04-06T02:11:18;13.35;;;8.30;;
72864;SDS011;61000;48.120;11.548;2023-04-06T02:13:48;11.85;;;7.78;;
72864;SDS011;61000;48.120;11.548;2023-04-06T02:16:16;9.23;;;7.68;;
72864;SDS011;61000;48.120;11.548;2023-04-06T02:18:45;10.18;;;7.45;;
72864;SDS011;61000;48.120;11.548;2023-04-06T02:21:12;9.50;;;7.75;;
72864;SDS011;61000;48.120;11.548;2023-04-06T02:23:39;12.13;;;8.52;;
72864;SDS011;61000;48.120;11.548;2023-04-06T02:26:07;10.35;;;7.90;;
72864;SDS011;61000;48.120;11.548;2023-04-06T02:28:34;14.75;;;8.60;;
72864;SDS011;61000;48.120;11.548;2023-04-06T02:31:01;11.25;;;8.32;;
72864;SDS011;61000;48.120;11.548;2023-04-06T02:33:28;10.75;;;8.07;;
72864;SDS011;61000;48.120;11.548;2023-04-06T02:35:55;12.10;;;8.40;;
72864;SDS011;61000;48.120;11.548;2023-04-06T02:38:22;12.20;;;8.20;;
72864;SDS011;61000;48.120;11.548;2023-04-06T02:40:51;9.88;;;7.57;;
72864;SDS011;61000;48.120;11.548;2023-04-06T02:43:22;12.15;;;8.48;;
72864;SDS011;61000;48.120;11.548;2023-04-06T02:45:54;12.63;;;8.30;;
72864;SDS011;61000;48.120;11.548;2023-04-06T02:48:23;10.35;;;8.20;;
72864;SDS011;61000;48.120;11.548;2023-04-06T02:50:51;8.32;;;7.25;;
72864;SDS011;61000;48.120;11.548;2023-04-06T02:53:18;12.45;;;9.18;;
72864;SDS011;61000;48.120;11.548;2023-04-06T02:55:45;15.20;;;8.60;;
72864;SDS011;61000;48.120;11.548;2023-04-06T02:58:12;11.15;;;8.90;;
72864;SDS011;61000;48.120;11.548;2023-04-06T03:00:46;11.40;;;8.88;;
72864;SDS011;61000;48.120;11.548;2023-04-06T03:03:13;10.55;;;8.55;;
72864;SDS011;61000;48.120;11.548;2023-04-06T03:05:42;11.23;;;8.57;;
72864;SDS011;61000;48.120;11.548;2023-04-06T03:08:09;10.70;;;8.40;;
72864;SDS011;61000;48.120;11.548;2023-04-06T03:10:41;11.82;;;8.45;;
72864;SDS011;61000;48.120;11.548;2023-04-06T03:13:08;12.88;;;8.68;;
72864;SDS011;61000;48.120;11.548;2023-04-06T03:16:06;12.68;;;9.40;;
72864;SDS011;61000;48.120;11.548;2023-04-06T03:18:34;12.68;;;8.82;;
72864;SDS011;61000;48.120;11.548;2023-04-06T03:21:01;11.32;;;8.60;;
72864;SDS011;61000;48.120;11.548;2023-04-06T03:23:40;12.32;;;8.55;;
72864;SDS011;61000;48.120;11.548;2023-04-06T03:26:07;12.32;;;8.90;;
72864;SDS011;61000;48.120;11.548;2023-04-06T03:28:34;12.40;;;9.50;;
72864;SDS011;61000;48.120;11.548;2023-04-06T03:31:03;11.57;;;9.25;;
72864;SDS011;61000;48.120;11.548;2023-04-06T03:33:51;12.13;;;9.02;;
72864;SDS011;61000;48.120;11.548;2023-04-06T03:36:25;15.38;;;8.95;;
72864;SDS011;61000;48.120;11.548;2023-04-06T03:38:54;12.48;;;9.43;;
72864;SDS011;61000;48.120;11.548;2023-04-06T03:41:21;14.45;;;9.40;;
72864;SDS011;61000;48.120;11.548;2023-04-06T03:44:17;13.43;;;9.50;;
72864;SDS011;61000;48.120;11.548;2023-04-06T03:46:46;12.40;;;9.40;;
72864;SDS011;61000;48.120;11.548;2023-04-06T03:49:13;11.02;;;8.60;;
72864;SDS011;61000;48.120;11.548;2023-04-06T03:51:44;11.32;;;8.85;;
72864;SDS011;61000;48.120;11.548;2023-04-06T03:54:11;12.40;;;9.27;;
72864;SDS011;61000;48.120;11.548;2023-04-06T03:56:38;17.27;;;9.80;;
72864;SDS011;61000;48.120;11.548;2023-04-06T03:59:05;13.02;;;9.52;;
72864;SDS011;61000;48.120;11.548;2023-04-06T04:01:32;11.40;;;8.95;;
72864;SDS011;61000;48.120;11.548;2023-04-06T04:04:01;13.60;;;8.80;;
72864;SDS011;61000;48.120;11.548;2023-04-06T04:06:30;13.73;;;8.93;;
72864;SDS011;61000;48.120;11.548;2023-04-06T04:08:57;12.55;;;9.15;;
72864;SDS011;61000;48.120;11.548;2023-04-06T04:11:24;11.98;;;9.32;;
72864;SDS011;61000;48.120;11.548;2023-04-06T04:13:56;12.43;;;9.90;;
72864;SDS011;61000;48.120;11.548;2023-04-06T04:16:23;13.18;;;9.65;;
72864;SDS011;61000;48.120;11.548;2023-04-06T04:18:50;12.68;;;9.27;;
72864;SDS011;61000;48.120;11.548;2023-04-06T04:21:19;11.77;;;8.82;;
72864;SDS011;61000;48.120;11.548;2023-04-06T04:23:46;12.05;;;9.70;;
72864;SDS011;61000;48.120;11.548;2023-04-06T04:26:13;12.15;;;9.00;;
72864;SDS011;61000;48.120;11.548;2023-04-06T04:28:43;12.77;;;9.75;;
72864;SDS011;61000;48.120;11.548;2023-04-06T04:31:10;12.60;;;9.80;;
72864;SDS011;61000;48.120;11.548;2023-04-06T04:33:38;17.27;;;9.55;;
72864;SDS011;61000;48.120;11.548;2023-04-06T04:36:11;21.27;;;9.30;;
72864;SDS011;61000;48.120;11.548;2023-04-06T04:38:43;13.68;;;10.73;;
72864;SDS011;61000;48.120;11.548;2023-04-06T04:41:10;14.60;;;8.68;;
72864;SDS011;61000;48.120;11.548;2023-04-06T04:43:40;15.32;;;10.10;;
72864;SDS011;61000;48.120;11.548;2023-04-06T04:46:07;12.70;;;9.65;;
72864;SDS011;61000;48.120;11.548;2023-04-06T04:48:40;12.60;;;9.10;;
72864;SDS011;61000;48.120;11.548;2023-04-06T04:51:07;14.93;;;9.70;;
72864;SDS011;61000;48.120;11.548;2023-04-06T04:53:53;16.63;;;9.75;;
72864;SDS011;61000;48.120;11.548;2023-04-06T04:56:24;11.40;;;8.50;;
72864;SDS011;61000;48.120;11.548;2023-04-06T04:58:58;12.85;;;9.93;;
72864;SDS011;61000;48.120;11.548;2023-04-06T05:01:28;12.80;;;9.40;;
72864;SDS011;61000;48.120;11.548;2023-04-06T05:03:56;13.35;;;9.32;;
72864;SDS011;61000;48.120;11.548;2023-04-06T05:06:23;11.07;;;9.50;;
72864;SDS011;61000;48.120;11.548;2023-04-06T05:08:50;12.55;;;9.48;;
72864;SDS011;61000;48.120;11.548;2023-04-06T05:11:20;9.15;;;8.10;;
72864;SDS011;61000;48.120;11.548;2023-04-06T05:13:54;13.35;;;8.98;;
72864;SDS011;61000;48.120;11.548;2023-04-06T05:16:23;14.93;;;8.98;;
72864;SDS011;61000;48.120;11.548;2023-04-06T05:18:50;15.47;;;9.63;;
72864;SDS011;61000;48.120;11.548;2023-04-06T05:21:18;15.45;;;9.65;;
72864;SDS011;61000;48.120;11.548;2023-04-06T05:23:56;14.18;;;8.90;;
72864;SDS011;61000;48.120;11.548;2023-04-06T05:26:23;10.38;;;8.55;;
72864;SDS011;61000;48.120;11.548;2023-04-06T05:28:54;11.65;;;8.48;;
72864;SDS011;61000;48.120;11.548;2023-04-06T05:31:22;13.85;;;8.98;;
72864;SDS011;61000;48.120;11.548;2023-04-06T05:33:50;13.00;;;9.80;;
72864;SDS011;61000;48.120;11.548;2023-04-06T05:36:28;12.32;;;8.80;;
72864;SDS011;61000;48.120;11.548;2023-04-06T05:38:57;13.32;;;9.02;;
72864;SDS011;61000;48.120;11.548;2023-04-06T05:41:33;9.52;;;8.20;;
72864;SDS011;61000;48.120;11.548;2023-04-06T05:44:04;13.03;;;8.13;;
72864;SDS011;61000;48.120;11.548;2023-04-06T05:46:31;20.48;;;9.40;;
72864;SDS011;61000;48.120;11.548;2023-04-06T05:48:59;14.52;;;9.77;;
72864;SDS011;61000;48.120;11.548;2023-04-06T05:51:30;12.85;;;9.07;;
72864;SDS011;61000;48.120;11.548;2023-04-06T05:53:58;10.23;;;8.15;;
72864;SDS011;61000;48.120;11.548;2023-04-06T05:56:26;10.95;;;8.20;;
72864;SDS011;61000;48.120;11.548;2023-04-06T05:58:55;11.57;;;8.80;;
72864;SDS011;61000;48.120;11.548;2023-04-06T06:01:26;11.20;;;8.02;;
72864;SDS011;61000;48.120;11.548;2023-04-06T06:03:54;11.48;;;8.23;;
72864;SDS011;61000;48.120;11.548;2023-04-06T06:06:25;16.17;;;8.82;;
72864;SDS011;61000;48.120;11.548;2023-04-06T06:09:14;14.18;;;8.48;;
72864;SDS011;61000;48.120;11.548;2023-04-06T06:11:51;9.88;;;8.05;;
72864;SDS011;61000;48.120;11.548;2023-04-06T06:14:22;9.57;;;8.18;;
72864;SDS011;61000;48.120;11.548;2023-04-06T06:16:49;12.52;;;9.07;;
72864;SDS011;61000;48.120;11.548;2023-04-06T06:19:17;11.52;;;8.52;;
72864;SDS011;61000;48.120;11.548;2023-04-06T06:21:45;11.93;;;9.13;;
72864;SDS011;61000;48.120;11.548;2023-04-06T06:24:12;13.00;;;8.88;;
72864;SDS011;61000;48.120;11.548;2023-04-06T06:26:40;11.13;;;8.25;;
72864;SDS011;61000;48.120;11.548;2023-04-06T06:29:10;12.52;;;8.52;;
72864;SDS011;61000;48.120;11.548;2023-04-06T06:31:38;17.38;;;8.52;;
72864;SDS011;61000;48.120;11.548;2023-04-06T06:34:05;16.02;;;8.30;;
72864;SDS011;61000;48.120;11.548;2023-04-06T06:36:34;11.52;;;7.97;;
72864;SDS011;61000;48.120;11.548;2023-04-06T06:39:04;13.05;;;8.77;;
72864;SDS011;61000;48.120;11.548;2023-04-06T06:41:31;10.38;;;8.13;;
72864;SDS011;61000;48.120;11.548;2023-04-06T06:44:00;15.68;;;8.68;;
72864;SDS011;61000;48.120;11.548;2023-04-06T06:46:27;11.57;;;8.02;;
72864;SDS011;61000;48.120;11.548;2023-04-06T06:48:54;11.60;;;8.40;;
72864;SDS011;61000;48.120;11.548;2023-04-06T06:51:21;11.27;;;8.48;;
72864;SDS011;61000;48.120;11.548;2023-04-06T06:53:48;11.35;;;8.40;;
72864;SDS011;61000;48.120;11.548;2023-04-06T06:56:15;11.02;;;8.07;;
72864;SDS011;61000;48.120;11.548;2023-04-06T06:58:42;17.13;;;8.63;;
72864;SDS011;61000;48.120;11.548;2023-04-06T07:01:11;13.23;;;8.35;;
72864;SDS011;61000;48.120;11.548;2023-04-06T07:03:38;14.95;;;9.05;;
72864;SDS011;61000;48.120;11.548;2023-04-06T07:06:05;12.45;;;8.05;;
72864;SDS011;61000;48.120;11.548;2023-04-06T07:08:32;13.50;;;9.02;;
72864;SDS011;61000;48.120;11.548;2023-04-06T07:10:59;11.50;;;8.00;;
72864;SDS011;61000;48.120;11.548;2023-04-06T07:13:26;10.57;;;7.82;;
72864;SDS011;61000;48.120;11.548;2023-04-06T07:15:56;11.05;;;8.20;;
72864;SDS011;61000;48.120;11.548;2023-04-06T07:18:24;10.25;;;8.23;;
72864;SDS011;61000;48.120;11.548;2023-04-06T07:20:52;11.68;;;7.55;;
72864;SDS011;61000;48.120;11.548;2023-04-06T07:23:19;10.25;;;7.68;;
72864;SDS011;61000;48.120;11.548;2023-04-06T07:25:46;8.05;;;6.97;;
72864;SDS011;61000;48.120;11.548;2023-04-06T07:28:13;7.40;;;6.55;;
72864;SDS011;61000;48.120;11.548;2023-04-06T07:30:40;8.52;;;7.07;;
72864;SDS011;61000;48.120;11.548;2023-04-06T07:33:09;8.68;;;6.63;;
72864;SDS011;61000;48.120;11.548;2023-04-06T07:35:38;8.45;;;6.90;;
72864;SDS011;61000;48.120;11.548;2023-04-06T07:38:06;8.15;;;7.05;;
72864;SDS011;61000;48.120;11.548;2023-04-06T07:40:34;9.52;;;7.22;;
72864;SDS011;61000;48.120;11.548;2023-04-06T07:43:02;12.52;;;6.90;;
72864;SDS011;61000;48.120;11.548;2023-04-06T07:45:30;8.45;;;6.90;;
72864;SDS011;61000;48.120;11.548;2023-04-06T07:47:57;16.63;;;7.75;;
72864;SDS011;61000;48.120;11.548;2023-04-06T07:50:26;10.77;;;7.07;;
72864;SDS011;61000;48.120;11.548;2023-04-06T07:52:55;9.38;;;7.55;;
72864;SDS011;61000;48.120;11.548;2023-04-06T07:55:23;8.40;;;7.07;;
72864;SDS011;61000;48.120;11.548;2023-04-06T07:57:50;11.73;;;8.18;;
72864;SDS011;61000;48.120;11.548;2023-04-06T08:00:17;13.68;;;8.85;;
72864;SDS011;61000;48.120;11.548;2023-04-06T08:02:44;10.73;;;8.45;;
72864;SDS011;61000;48.120;11.548;2023-04-06T08:05:11;12.02;;;7.50;;
72864;SDS011;61000;48.120;11.548;2023-04-06T08:07:38;14.48;;;7.88;;
72864;SDS011;61000;48.120;11.548;2023-04-06T08:10:08;8.63;;;6.60;;
72864;SDS011;61000;48.120;11.548;2023-04-06T08:12:35;11.32;;;7.05;;
72864;SDS011;61000;48.120;11.548;2023-04-06T08:15:03;9.15;;;6.95;;
72864;SDS011;61000;48.120;11.548;2023-04-06T08:17:31;8.30;;;7.35;;
72864;SDS011;61000;48.120;11.548;2023-04-06T08:19:59;11.27;;;7.47;;
72864;SDS011;61000;48.120;11.548;2023-04-06T08:22:26;12.50;;;8.57;;
72864;SDS011;61000;48.120;11.548;2023-04-06T08:24:53;12.27;;;8.13;;
72864;SDS011;61000;48.120;11.548;2023-04-06T08:27:21;10.00;;;7.78;;
72864;SDS011;61000;48.120;11.548;2023-04-06T08:29:49;10.98;;;7.32;;
72864;SDS011;61000;48.120;11.548;2023-04-06T08:32:15;11.10;;;8.13;;
72864;SDS011;61000;48.120;11.548;2023-04-06T08:34:43;10.18;;;6.93;;
72864;SDS011;61000;48.120;11.548;2023-04-06T08:37:10;11.10;;;7.70;;
72864;SDS011;61000;48.120;11.548;2023-04-06T08:39:37;13.00;;;7.90;;
72864;SDS011;61000;48.120;11.548;2023-04-06T08:42:09;10.82;;;7.47;;
72864;SDS011;61000;48.120;11.548;2023-04-06T08:44:41;13.38;;;7.97;;
72864;SDS011;61000;48.120;11.548;2023-04-06T08:47:08;11.02;;;8.20;;
72864;SDS011;61000;48.120;11.548;2023-04-06T08:49:35;12.18;;;7.20;;
72864;SDS011;61000;48.120;11.548;2023-04-06T08:52:05;11.15;;;7.80;;
72864;SDS011;61000;48.120;11.548;2023-04-06T08:54:33;12.07;;;7.72;;
72864;SDS011;61000;48.120;11.548;2023-04-06T08:57:00;10.15;;;7.38;;
72864;SDS011;61000;48.120;11.548;2023-04-06T08:59:28;9.15;;;7.07;;
72864;SDS011;61000;48.120;11.548;2023-04-06T09:01:58;11.32;;;7.55;;
72864;SDS011;61000;48.120;11.548;2023-04-06T09:04:27;9.75;;;7.35;;
72864;SDS011;61000;48.120;11.548;2023-04-06T09:06:54;9.25;;;7.53;;
72864;SDS011;61000;48.120;11.548;2023-04-06T09:09:21;11.35;;;7.38;;
72864;SDS011;61000;48.120;11.548;2023-04-06T09:11:50;10.05;;;6.43;;
72864;SDS011;61000;48.120;11.548;2023-04-06T09:14:32;10.35;;;7.72;;
72864;SDS011;61000;48.120;11.548;2023-04-06T09:17:01;11.18;;;8.00;;
72864;SDS011;61000;48.120;11.548;2023-04-06T09:19:28;10.02;;;7.47;;
72864;SDS011;61000;48.120;11.548;2023-04-06T09:22:01;12.00;;;7.07;;
72864;SDS011;61000;48.120;11.548;2023-04-06T09:24:38;11.30;;;6.85;;
72864;SDS011;61000;48.120;11.548;2023-04-06T09:27:06;10.82;;;7.25;;
72864;SDS011;61000;48.120;11.548;2023-04-06T09:29:33;10.07;;;7.15;;
72864;SDS011;61000;48.120;11.548;2023-04-06T09:32:03;8.60;;;6.80;;
72864;SDS011;61000;48.120;11.548;2023-04-06T09:34:31;10.90;;;7.30;;
72864;SDS011;61000;48.120;11.548;2023-04-06T09:36:59;10.55;;;7.00;;
72864;SDS011;61000;48.120;11.548;2023-04-06T09:39:26;8.30;;;7.10;;
72864;SDS011;61000;48.120;11.548;2023-04-06T09:41:53;9.68;;;7.13;;
72864;SDS011;61000;48.120;11.548;2023-04-06T09:44:21;8.10;;;7.00;;
72864;SDS011;61000;48.120;11.548;2023-04-06T09:46:50;8.07;;;7.07;;
72864;SDS011;61000;48.120;11.548;2023-04-06T09:49:19;9.18;;;7.82;;
72864;SDS011;61000;48.120;11.548;2023-04-06T09:51:47;9.77;;;7.80;;
72864;SDS011;61000;48.120;11.548;2023-04-06T09:54:22;10.60;;;7.78;;
72864;SDS011;61000;48.120;11.548;2023-04-06T09:56:50;8.25;;;7.03;;
72864;SDS011;61000;48.120;11.548;2023-04-06T09:59:29;12.32;;;6.82;;
72864;SDS011;61000;48.120;11.548;2023-04-06T10:02:03;15.90;;;7.50;;
72864;SDS011;61000;48.120;11.548;2023-04-06T10:04:37;11.63;;;7.47;;
72864;SDS011;61000;48.120;11.548;2023-04-06T10:07:09;10.90;;;8.00;;
72864;SDS011;61000;48.120;11.548;2023-04-06T10:09:38;10.07;;;8.30;;
72864;SDS011;61000;48.120;11.548;2023-04-06T10:12:05;11.05;;;8.20;;
72864;SDS011;61000;48.120;11.548;2023-04-06T10:14:33;12.73;;;8.02;;
72864;SDS011;61000;48.120;11.548;2023-04-06T10:17:02;9.30;;;7.60;;
72864;SDS011;61000;48.120;11.548;2023-04-06T10:19:32;8.68;;;7.00;;
72864;SDS011;61000;48.120;11.548;2023-04-06T10:22:06;8.50;;;7.20;;
72864;SDS011;61000;48.120;11.548;2023-04-06T10:24:36;8.95;;;7.53;;
72864;SDS011;61000;48.120;11.548;2023-04-06T10:27:04;11.55;;;7.63;;
72864;SDS011;61000;48.120;11.548;2023-04-06T10:29:41;8.38;;;7.43;;
72864;SDS011;61000;48.120;11.548;2023-04-06T10:32:10;7.60;;;6.57;;
72864;SDS011;61000;48.120;11.548;2023-04-06T10:34:38;9.15;;;7.15;;
72864;SDS011;61000;48.120;11.548;2023-04-06T10:37:15;10.82;;;7.68;;
72864;SDS011;61000;48.120;11.548;2023-04-06T10:39:47;10.05;;;8.07;;
72864;SDS011;61000;48.120;11.548;2023-04-06T10:42:14;8.35;;;7.53;;
72864;SDS011;61000;48.120;11.548;2023-04-06T10:44:44;10.07;;;8.00;;
72864;SDS011;61000;48.120;11.548;2023-04-06T10:47:17;8.60;;;7.70;;
72864;SDS011;61000;48.120;11.548;2023-04-06T10:49:46;12.57;;;7.75;;
72864;SDS011;61000;48.120;11.548;2023-04-06T10:52:13;9.15;;;7.45;;
72864;SDS011;61000;48.120;11.548;2023-04-06T10:54:41;9.52;;;7.78;;
72864;SDS011;61000;48.120;11.548;2023-04-06T10:57:09;9.18;;;7.82;;
72864;SDS011;61000;48.120;11.548;2023-04-06T10:59:36;8.95;;;7.85;;
72864;SDS011;61000;48.120;11.548;2023-04-06T11:02:08;8.68;;;7.78;;
72864;SDS011;61000;48.120;11.548;2023-04-06T11:04:35;11.82;;;9.05;;
72864;SDS011;61000;48.120;11.548;2023-04-06T11:07:03;9.68;;;7.55;;
72864;SDS011;61000;48.120;11.548;2023-04-06T11:09:30;10.13;;;8.60;;
72864;SDS011;61000;48.120;11.548;2023-04-06T11:11:57;9.68;;;8.50;;
72864;SDS011;61000;48.120;11.548;2023-04-06T11:14:25;11.55;;;8.45;;
72864;SDS011;61000;48.120;11.548;2023-04-06T11:16:53;10.65;;;8.45;;
72864;SDS011;61000;48.120;11.548;2023-04-06T11:19:20;10.73;;;8.32;;
72864;SDS011;61000;48.120;11.548;2023-04-06T11:21:47;9.68;;;7.95;;
72864;SDS011;61000;48.120;11.548;2023-04-06T11:24:16;10.27;;;8.35;;
72864;SDS011;61000;48.120;11.548;2023-04-06T11:26:45;12.10;;;8.18;;
72864;SDS011;61000;48.120;11.548;2023-04-06T11:29:14;11.40;;;7.70;;
72864;SDS011;61000;48.120;11.548;2023-04-06T11:31:44;10.38;;;7.75;;
72864;SDS011;61000;48.120;11.548;2023-04-06T11:34:12;13.07;;;8.60;;
72864;SDS011;61000;48.120;11.548;2023-04-06T11:36:42;9.35;;;8.05;;
72864;SDS011;61000;48.120;11.548;2023-04-06T11:39:11;9.25;;;8.20;;
72864;SDS011;61000;48.120;11.548;2023-04-06T11:41:40;9.40;;;7.53;;
72864;SDS011;61000;48.120;11.548;2023-04-06T11:44:07;10.93;;;8.43;;
72864;SDS011;61000;48.120;11.548;2023-04-06T11:46:33;11.30;;;8.23;;
72864;SDS011;61000;48.120;11.548;2023-04-06T11:49:01;9.65;;;7.35;;
72864;SDS011;61000;48.120;11.548;2023-04-06T11:51:28;8.93;;;7.00;;
72864;SDS011;61000;48.120;11.548;2023-04-06T11:53:55;9.10;;;7.03;;
72864;SDS011;61000;48.120;11.548;2023-04-06T11:56:23;10.05;;;7.93;;
72864;SDS011;61000;48.120;11.548;2023-04-06T11:58:53;9.23;;;7.50;;
72864;SDS011;61000;48.120;11.548;2023-04-06T12:01:21;12.88;;;7.07;;
72864;SDS011;61000;48.120;11.548;2023-04-06T12:03:48;8.13;;;7.32;;
72864;SDS011;61000;48.120;11.548;2023-04-06T12:06:16;8.57;;;7.40;;
72864;SDS011;61000;48.120;11.548;2023-04-06T12:08:43;8.85;;;7.63;;
72864;SDS011;61000;48.120;11.548;2023-04-06T12:11:10;9.15;;;7.53;;
72864;SDS011;61000;48.120;11.548;2023-04-06T12:13:38;9.05;;;7.55;;
72864;SDS011;61000;48.120;11.548;2023-04-06T12:16:06;9.35;;;6.97;;
72864;SDS011;61000;48.120;11.548;2023-04-06T12:18:33;9.05;;;6.88;;
72864;SDS011;61000;48.120;11.548;2023-04-06T12:21:00;7.72;;;6.93;;
72864;SDS011;61000;48.120;11.548;2023-04-06T12:23:27;6.80;;;5.43;;
72864;SDS011;61000;48.120;11.548;2023-04-06T12:25:54;8.02;;;6.50;;
72864;SDS011;61000;48.120;11.548;2023-04-06T12:28:21;8.50;;;6.63;;
72864;SDS011;61000;48.120;11.548;2023-04-06T12:30:52;7.88;;;6.10;;
72864;SDS011;61000;48.120;11.548;2023-04-06T12:33:21;9.35;;;6.40;;
72864;SDS011;61000;48.120;11.548;2023-04-06T12:35:48;8.50;;;6.72;;
72864;SDS011;61000;48.120;11.548;2023-04-06T12:38:15;7.63;;;6.85;;
72864;SDS011;61000;48.120;11.548;2023-04-06T12:40:42;7.53;;;6.55;;
72864;SDS011;61000;48.120;11.548;2023-04-06T12:43:09;8.27;;;6.40;;
72864;SDS011;61000;48.120;11.548;2023-04-06T12:45:38;9.75;;;6.35;;
72864;SDS011;61000;48.120;11.548;2023-04-06T12:48:05;7.32;;;6.30;;
72864;SDS011;61000;48.120;11.548;2023-04-06T12:50:34;8.38;;;6.05;;
72864;SDS011;61000;48.120;11.548;2023-04-06T12:53:01;7.57;;;6.10;;
72864;SDS011;61000;48.120;11.548;2023-04-06T12:55:29;7.90;;;6.60;;
72864;SDS011;61000;48.120;11.548;2023-04-06T12:57:59;6.82;;;6.13;;
72864;SDS011;61000;48.120;11.548;2023-04-06T13:00:26;6.47;;;5.10;;
72864;SDS011;61000;48.120;11.548;2023-04-06T13:02:53;6.20;;;5.38;;
72864;SDS011;61000;48.120;11.548;2023-04-06T13:05:20;8.18;;;6.57;;
72864;SDS011;61000;48.120;11.548;2023-04-06T13:07:49;7.75;;;6.68;;
72864;SDS011;61000;48.120;11.548;2023-04-06T13:10:16;10.00;;;6.82;;
72864;SDS011;61000;48.120;11.548;2023-04-06T13:12:43;7.28;;;6.38;;
72864;SDS011;61000;48.120;11.548;2023-04-06T13:15:10;7.40;;;6.00;;
72864;SDS011;61000;48.120;11.548;2023-04-06T13:17:37;8.05;;;6.28;;
72864;SDS011;61000;48.120;11.548;2023-04-06T13:20:05;8.52;;;6.40;;
72864;SDS011;61000;48.120;11.548;2023-04-06T13:22:32;8.38;;;6.82;;
72864;SDS011;61000;48.120;11.548;2023-04-06T13:25:01;8.23;;;7.30;;
72864;SDS011;61000;48.120;11.548;2023-04-06T13:27:28;8.57;;;7.10;;
72864;SDS011;61000;48.120;11.548;2023-04-06T13:29:58;8.43;;;6.93;;
72864;SDS011;61000;48.120;11.548;2023-04-06T13:32:26;9.52;;;6.70;;
72864;SDS011;61000;48.120;11.548;2023-04-06T13:34:54;7.00;;;6.30;;
72864;SDS011;61000;48.120;11.548;2023-04-06T13:37:21;8.48;;;6.38;;
72864;SDS011;61000;48.120;11.548;2023-04-06T13:39:48;10.32;;;6.50;;
72864;SDS011;61000;48.120;11.548;2023-04-06T13:42:16;8.52;;;6.75;;
72864;SDS011;61000;48.120;11.548;2023-04-06T13:44:43;9.80;;;6.60;;
72864;SDS011;61000;48.120;11.548;2023-04-06T13:47:12;8.40;;;6.00;;
72864;SDS011;61000;48.120;11.548;2023-04-06T13:49:40;7.90;;;5.70;;
72864;SDS011;61000;48.120;11.548;2023-04-06T13:52:07;8.25;;;6.50;;
72864;SDS011;61000;48.120;11.548;2023-04-06T13:54:35;10.20;;;6.93;;
72864;SDS011;61000;48.120;11.548;2023-04-06T13:57:02;9.93;;;7.28;;
72864;SDS011;61000;48.120;11.548;2023-04-06T13:59:33;6.50;;;5.70;;
72864;SDS011;61000;48.120;11.548;2023-04-06T14:02:00;7.07;;;5.30;;
72864;SDS011;61000;48.120;11.548;2023-04-06T14:04:27;8.70;;;5.90;;
72864;SDS011;61000;48.120;11.548;2023-04-06T14:06:55;6.28;;;5.60;;
72864;SDS011;61000;48.120;11.548;2023-04-06T14:09:22;7.38;;;5.47;;
72864;SDS011;61000;48.120;11.548;2023-04-06T14:11:49;6.70;;;5.35;;
72864;SDS011;61000;48.120;11.548;2023-04-06T14:14:16;6.18;;;5.35;;
72864;SDS011;61000;48.120;11.548;2023-04-06T14:16:44;6.85;;;6.15;;
72864;SDS011;61000;48.120;11.548;2023-04-06T14:19:11;7.05;;;5.30;;
72864;SDS011;61000;48.120;11.548;2023-04-06T14:21:40;6.28;;;5.68;;
72864;SDS011;61000;48.120;11.548;2023-04-06T14:24:08;6.35;;;5.40;;
72864;SDS011;61000;48.120;11.548;2023-04-06T14:26:36;5.63;;;4.85;;
72864;SDS011;61000;48.120;11.548;2023-04-06T14:29:03;5.57;;;5.03;;
72864;SDS011;61000;48.120;11.548;2023-04-06T14:31:30;8.05;;;5.30;;
72864;SDS011;61000;48.120;11.548;2023-04-06T14:34:00;5.18;;;4.70;;
72864;SDS011;61000;48.120;11.548;2023-04-06T14:36:28;5.30;;;4.80;;